createdAt,value
2023-04-10T00:02:25.872Z,16.10
2023-04-10T00:04:53.013Z,16.11
2023-04-10T00:07:19.830Z,16.11
2023-04-10T00:09:46.572Z,16.13
2023-04-10T00:12:14.592Z,16.15
2023-04-10T00:14:41.940Z,16.11
2023-04-10T00:17:08.741Z,16.13
2023-04-10T00:19:35.712Z,16.10
2023-04-10T00:22:02.498Z,16.09
2023-04-10T00:24:29.263Z,16.09
2023-04-10T00:26:57.485Z,16.03
2023-04-10T00:29:24.767Z,16.05
2023-04-10T00:31:51.601Z,16.04
2023-04-10T00:34:18.281Z,16.03
2023-04-10T00:36:47.397Z,16.00
2023-04-10T00:39:14.486Z,16.02
2023-04-10T00:41:41.551Z,15.98
2023-04-10T00:44:08.924Z,16.09
2023-04-10T00:46:38.226Z,16.06
2023-04-10T00:49:06.419Z,16.06
2023-04-10T00:51:33.813Z,16.05
2023-04-10T00:54:02.409Z,15.99
2023-04-10T00:56:32.041Z,15.97
2023-04-10T00:58:58.996Z,15.94
2023-04-10T01:01:26.136Z,15.89
2023-04-10T01:03:54.795Z,15.91
2023-04-10T01:06:24.840Z,15.67
2023-04-10T01:09:29.765Z,15.69
2023-04-10T01:12:10.126Z,15.57
2023-04-10T01:15:10.854Z,15.43
2023-04-10T01:18:02.110Z,15.46
2023-04-10T01:20:34.886Z,15.53
2023-04-10T01:23:04.365Z,15.54
2023-04-10T01:25:53.934Z,15.49
2023-04-10T01:28:52.954Z,15.39
2023-04-10T01:31:27.392Z,15.29
2023-04-10T01:34:02.036Z,15.25
2023-04-10T01:36:36.010Z,15.24
2023-04-10T01:39:05.633Z,15.24
2023-04-10T01:41:34.132Z,15.25
2023-04-10T01:44:04.411Z,15.17
2023-04-10T01:46:32.914Z,15.11
2023-04-10T01:49:02.349Z,15.11
2023-04-10T01:51:31.261Z,15.07
2023-04-10T01:54:01.479Z,15.08
2023-04-10T01:56:29.101Z,15.09
2023-04-10T01:58:56.664Z,15.14
2023-04-10T02:01:29.722Z,15.14
2023-04-10T02:03:58.927Z,15.15
2023-04-10T02:06:47.518Z,15.12
2023-04-10T02:09:58.796Z,15.13
2023-04-10T02:12:55.696Z,15.09
2023-04-10T02:15:28.670Z,15.11
2023-04-10T02:17:59.761Z,15.08
2023-04-10T02:20:27.174Z,15.16
2023-04-10T02:22:54.374Z,15.10
2023-04-10T02:25:21.160Z,15.20
2023-04-10T02:27:49.008Z,15.10
2023-04-10T02:30:16.601Z,15.08
2023-04-10T02:32:44.299Z,15.05
2023-04-10T02:35:12.064Z,15.04
2023-04-10T02:37:38.829Z,15.06
2023-04-10T02:40:07.118Z,15.09
2023-04-10T02:42:42.988Z,15.21
2023-04-10T02:45:11.081Z,15.22
2023-04-10T02:47:41.782Z,15.21
2023-04-10T02:50:08.979Z,15.24
2023-04-10T02:52:38.697Z,15.15
2023-04-10T02:55:06.037Z,15.18
2023-04-10T02:57:36.418Z,15.09
2023-04-10T03:00:05.320Z,15.06
2023-04-10T03:02:53.744Z,15.07
2023-04-10T03:05:21.437Z,15.03
2023-04-10T03:07:48.250Z,14.97
2023-04-10T03:10:15.318Z,14.88
2023-04-10T03:12:42.117Z,14.89
2023-04-10T03:15:09.177Z,14.93
2023-04-10T03:17:36.013Z,15.03
2023-04-10T03:20:02.950Z,14.95
2023-04-10T03:22:33.121Z,14.95
2023-04-10T03:25:00.360Z,14.96
2023-04-10T03:27:27.263Z,14.91
2023-04-10T03:29:54.066Z,14.90
2023-04-10T03:32:20.974Z,14.90
2023-04-10T03:34:47.712Z,14.93
2023-04-10T03:37:14.423Z,14.82
2023-04-10T03:39:41.487Z,14.84
2023-04-10T03:42:08.326Z,14.80
2023-04-10T03:44:36.885Z,14.87
2023-04-10T03:47:04.040Z,14.86
2023-04-10T03:49:31.288Z,14.85
2023-04-10T03:52:04.195Z,14.87
2023-04-10T03:54:31.025Z,14.78
2023-04-10T03:56:58.123Z,14.72
2023-04-10T03:59:37.392Z,14.68
2023-04-10T04:02:08.828Z,14.68
2023-04-10T04:04:36.716Z,14.73
2023-04-10T04:07:35.855Z,14.76
2023-04-10T04:10:15.086Z,14.69
2023-04-10T04:13:00.390Z,14.73
2023-04-10T04:15:56.484Z,14.75
2023-04-10T04:18:58.306Z,14.59
2023-04-10T04:21:38.571Z,14.66
2023-04-10T04:24:13.014Z,14.59
2023-04-10T04:27:01.418Z,14.50
2023-04-10T04:29:48.874Z,14.55
2023-04-10T04:32:34.069Z,14.61
2023-04-10T04:35:17.603Z,14.63
2023-04-10T04:38:20.338Z,14.67
2023-04-10T04:41:25.852Z,14.70
2023-04-10T04:44:07.872Z,14.66
2023-04-10T04:46:49.711Z,14.62
2023-04-10T04:49:28.303Z,14.58
2023-04-10T04:52:13.454Z,14.52
2023-04-10T04:54:43.466Z,14.54
2023-04-10T04:57:36.740Z,14.55
2023-04-10T05:00:22.303Z,14.55
2023-04-10T05:02:49.268Z,14.59
2023-04-10T05:05:34.787Z,14.58
2023-04-10T05:08:10.891Z,14.51
2023-04-10T05:10:57.591Z,14.48
2023-04-10T05:13:42.737Z,14.50
2023-04-10T05:16:35.757Z,14.51
2023-04-10T05:19:22.786Z,14.46
2023-04-10T05:22:24.918Z,14.41
2023-04-10T05:25:13.796Z,14.44
2023-04-10T05:28:04.159Z,14.46
2023-04-10T05:31:00.318Z,14.49
2023-04-10T05:33:45.845Z,14.57
2023-04-10T05:36:32.190Z,14.53
2023-04-10T05:39:06.359Z,14.57
2023-04-10T05:41:53.052Z,14.58
2023-04-10T05:44:30.939Z,14.55
2023-04-10T05:47:05.377Z,14.66
2023-04-10T05:49:54.650Z,14.72
2023-04-10T05:52:46.706Z,14.59
2023-04-10T05:55:33.855Z,14.61
2023-04-10T05:58:15.489Z,14.66
2023-04-10T06:01:00.937Z,14.54
2023-04-10T06:03:45.030Z,14.51
2023-04-10T06:06:12.769Z,14.59
2023-04-10T06:08:40.898Z,14.61
2023-04-10T06:11:07.762Z,14.69
2023-04-10T06:13:35.299Z,14.67
2023-04-10T06:16:03.097Z,14.78
2023-04-10T06:18:31.204Z,14.75
2023-04-10T06:21:00.346Z,14.87
2023-04-10T06:23:27.880Z,14.86
2023-04-10T06:25:55.618Z,14.80
2023-04-10T06:28:22.746Z,14.84
2023-04-10T06:30:54.513Z,15.03
2023-04-10T06:33:28.829Z,15.17
2023-04-10T06:35:56.081Z,15.26
2023-04-10T06:38:23.285Z,15.36
2023-04-10T06:40:50.516Z,15.42
2023-04-10T06:43:17.511Z,15.39
2023-04-10T06:45:44.390Z,15.50
2023-04-10T06:48:11.415Z,15.62
2023-04-10T06:50:38.190Z,15.71
2023-04-10T06:53:04.893Z,15.91
2023-04-10T06:55:31.691Z,16.02
2023-04-10T06:57:58.466Z,16.10
2023-04-10T07:00:25.696Z,16.21
2023-04-10T07:02:52.530Z,16.14
2023-04-10T07:05:19.408Z,16.28
2023-04-10T07:07:47.598Z,16.33
2023-04-10T07:10:14.350Z,16.42
2023-04-10T07:12:41.061Z,16.44
2023-04-10T07:15:08.469Z,16.59
2023-04-10T07:17:35.554Z,16.64
2023-04-10T07:20:02.394Z,16.74
2023-04-10T07:22:29.130Z,16.78
2023-04-10T07:24:56.407Z,16.85
2023-04-10T07:27:24.725Z,16.60
2023-04-10T07:29:55.380Z,16.67
2023-04-10T07:32:22.823Z,16.76
2023-04-10T07:34:49.771Z,16.77
2023-04-10T07:37:18.083Z,16.74
2023-04-10T07:39:45.314Z,16.91
2023-04-10T07:42:12.059Z,17.04
2023-04-10T07:44:38.786Z,17.11
2023-04-10T07:47:05.506Z,17.09
2023-04-10T07:49:32.289Z,17.17
2023-04-10T07:51:59.034Z,17.19
2023-04-10T07:54:25.818Z,17.25
2023-04-10T07:56:53.307Z,17.30
2023-04-10T07:59:20.133Z,17.33
2023-04-10T08:01:46.935Z,17.46
2023-04-10T08:04:13.892Z,17.51
2023-04-10T08:06:40.794Z,17.50
2023-04-10T08:09:07.513Z,17.57
2023-04-10T08:11:37.938Z,17.59
2023-04-10T08:14:05.898Z,17.61
2023-04-10T08:16:35.421Z,17.79
2023-04-10T08:19:03.004Z,17.84
2023-04-10T08:21:32.024Z,17.88
2023-04-10T08:24:00.960Z,18.03
2023-04-10T08:26:28.401Z,18.17
2023-04-10T08:29:00.842Z,18.13
2023-04-10T08:31:29.029Z,18.27
2023-04-10T08:33:56.753Z,18.45
2023-04-10T08:36:23.927Z,18.55
2023-04-10T08:38:50.692Z,18.61
2023-04-10T08:41:18.933Z,18.66
2023-04-10T08:43:46.426Z,18.82
2023-04-10T08:46:16.481Z,18.88
2023-04-10T08:48:46.944Z,18.92
2023-04-10T08:51:26.396Z,18.89
2023-04-10T08:53:59.140Z,19.05
2023-04-10T08:56:26.927Z,19.15
2023-04-10T08:58:53.977Z,19.20
2023-04-10T09:01:21.889Z,19.23
2023-04-10T09:03:48.885Z,19.25
2023-04-10T09:06:15.810Z,19.31
2023-04-10T09:08:42.536Z,19.33
2023-04-10T09:11:09.399Z,19.20
2023-04-10T09:13:38.855Z,19.34
2023-04-10T09:16:06.579Z,19.41
2023-04-10T09:18:45.467Z,19.62
2023-04-10T09:21:15.586Z,19.79
2023-04-10T09:23:44.599Z,19.87
2023-04-10T09:26:26.097Z,19.95
2023-04-10T09:28:57.702Z,20.08
2023-04-10T09:31:32.280Z,20.17
2023-04-10T09:34:15.379Z,20.26
2023-04-10T09:36:54.190Z,20.39
2023-04-10T09:39:21.490Z,20.46
2023-04-10T09:41:53.250Z,20.57
2023-04-10T09:44:32.750Z,20.72
2023-04-10T09:47:16.156Z,20.76
2023-04-10T09:49:46.597Z,20.88
2023-04-10T09:52:26.455Z,20.91
2023-04-10T09:54:54.632Z,20.97
2023-04-10T09:57:22.856Z,20.92
2023-04-10T09:59:52.310Z,21.00
2023-04-10T10:02:21.221Z,20.81
2023-04-10T10:04:49.556Z,20.94
2023-04-10T10:07:17.704Z,20.92
2023-04-10T10:09:48.154Z,20.82
2023-04-10T10:12:34.480Z,20.93
2023-04-10T10:15:31.368Z,21.05
2023-04-10T10:18:22.528Z,21.12
2023-04-10T10:20:51.095Z,21.06
2023-04-10T10:23:18.338Z,21.17
2023-04-10T10:25:46.224Z,21.09
2023-04-10T10:28:14.692Z,21.22
2023-04-10T10:30:42.587Z,21.21
2023-04-10T10:33:10.772Z,21.25
2023-04-10T10:35:37.871Z,21.21
2023-04-10T10:38:05.457Z,21.30
2023-04-10T10:40:53.928Z,21.27
2023-04-10T10:43:32.797Z,21.13
2023-04-10T10:46:04.250Z,21.29
2023-04-10T10:48:31.088Z,21.29
2023-04-10T10:51:00.436Z,21.29
2023-04-10T10:53:40.598Z,21.34
2023-04-10T10:56:34.194Z,21.33
2023-04-10T10:59:02.095Z,21.27
2023-04-10T11:01:29.163Z,21.32
2023-04-10T11:03:57.055Z,21.52
2023-04-10T11:06:51.315Z,21.75
2023-04-10T11:09:47.611Z,21.82
2023-04-10T11:12:15.543Z,21.84
2023-04-10T11:14:44.344Z,21.79
2023-04-10T11:17:11.762Z,21.83
2023-04-10T11:19:59.493Z,21.81
2023-04-10T11:22:27.887Z,21.97
2023-04-10T11:24:59.339Z,21.89
2023-04-10T11:27:43.838Z,21.99
2023-04-10T11:30:30.637Z,21.81
2023-04-10T11:32:58.475Z,21.92
2023-04-10T11:35:27.271Z,21.90
2023-04-10T11:38:09.311Z,21.96
2023-04-10T11:40:35.992Z,22.02
2023-04-10T11:43:14.137Z,21.79
2023-04-10T11:45:41.243Z,21.76
2023-04-10T11:48:08.705Z,21.70
2023-04-10T11:50:36.287Z,21.70
2023-04-10T11:53:18.220Z,21.53
2023-04-10T11:55:45.002Z,21.60
2023-04-10T11:58:24.443Z,21.47
2023-04-10T12:01:02.901Z,21.57
2023-04-10T12:03:38.063Z,21.63
2023-04-10T12:06:11.210Z,21.65
2023-04-10T12:08:49.300Z,21.80
2023-04-10T12:11:21.650Z,21.87
2023-04-10T12:13:51.834Z,21.83
2023-04-10T12:16:19.134Z,21.95
2023-04-10T12:18:46.407Z,21.99
2023-04-10T12:21:13.626Z,21.91
2023-04-10T12:23:40.590Z,22.10
2023-04-10T12:26:14.604Z,21.83
2023-04-10T12:28:55.106Z,21.87
2023-04-10T12:31:30.013Z,21.88
2023-04-10T12:33:58.140Z,21.96
2023-04-10T12:36:30.602Z,22.03
2023-04-10T12:39:00.413Z,22.05
2023-04-10T12:41:29.745Z,21.80
2023-04-10T12:44:15.009Z,21.90
2023-04-10T12:46:44.486Z,21.99
2023-04-10T12:49:16.119Z,21.79
2023-04-10T12:51:47.294Z,21.83
2023-04-10T12:54:46.680Z,21.90
2023-04-10T12:57:26.374Z,21.85
2023-04-10T12:59:53.305Z,21.73
2023-04-10T13:02:21.314Z,21.49
2023-04-10T13:04:48.194Z,21.34
2023-04-10T13:07:14.934Z,21.57
2023-04-10T13:09:41.727Z,21.58
2023-04-10T13:12:08.493Z,21.35
2023-04-10T13:14:35.292Z,21.28
2023-04-10T13:17:02.195Z,21.40
2023-04-10T13:19:29.148Z,21.32
2023-04-10T13:21:55.991Z,21.07
2023-04-10T13:24:22.664Z,20.91
2023-04-10T13:26:49.431Z,21.21
2023-04-10T13:29:16.143Z,21.24
2023-04-10T13:31:42.986Z,21.23
2023-04-10T13:34:12.651Z,21.17
2023-04-10T13:36:39.457Z,21.37
2023-04-10T13:39:06.458Z,21.11
2023-04-10T13:41:33.388Z,21.15
2023-04-10T13:44:00.168Z,21.07
2023-04-10T13:46:26.951Z,21.04
2023-04-10T13:48:53.683Z,21.19
2023-04-10T13:51:20.507Z,21.06
2023-04-10T13:53:47.330Z,21.11
2023-04-10T13:56:14.180Z,21.14
2023-04-10T13:58:40.942Z,21.20
2023-04-10T14:01:08.564Z,20.97
2023-04-10T14:03:35.523Z,21.19
2023-04-10T14:06:02.331Z,20.99
2023-04-10T14:08:29.102Z,21.03
2023-04-10T14:10:56.294Z,20.97
2023-04-10T14:13:22.999Z,20.95
2023-04-10T14:15:52.081Z,20.89
2023-04-10T14:18:19.808Z,20.73
2023-04-10T14:20:46.544Z,20.69
2023-04-10T14:23:18.292Z,20.78
2023-04-10T14:25:46.078Z,20.89
2023-04-10T14:28:22.015Z,20.95
2023-04-10T14:30:50.861Z,21.05
2023-04-10T14:33:19.755Z,20.98
2023-04-10T14:35:47.726Z,21.07
2023-04-10T14:38:15.601Z,20.97
2023-04-10T14:40:42.820Z,21.22
2023-04-10T14:43:09.667Z,21.07
2023-04-10T14:45:36.428Z,21.26
2023-04-10T14:48:03.326Z,21.24
2023-04-10T14:50:32.761Z,21.13
2023-04-10T14:53:00.452Z,21.37
2023-04-10T14:55:29.201Z,21.28
2023-04-10T14:57:58.228Z,21.27
2023-04-10T15:00:26.087Z,21.16
2023-04-10T15:02:52.975Z,21.29
2023-04-10T15:05:19.961Z,21.17
2023-04-10T15:07:46.669Z,21.14
2023-04-10T15:10:13.484Z,21.12
2023-04-10T15:12:40.339Z,20.95
2023-04-10T15:15:07.676Z,21.05
2023-04-10T15:17:34.478Z,21.00
2023-04-10T15:20:01.468Z,21.13
2023-04-10T15:22:29.349Z,21.22
2023-04-10T15:24:56.173Z,21.05
2023-04-10T15:27:23.009Z,21.08
2023-04-10T15:29:49.903Z,20.90
2023-04-10T15:32:16.731Z,20.79
2023-04-10T15:34:44.486Z,21.14
2023-04-10T15:37:11.707Z,21.05
2023-04-10T15:39:38.661Z,21.18
2023-04-10T15:42:07.491Z,21.47
2023-04-10T15:44:34.293Z,21.49
2023-04-10T15:47:01.094Z,21.20
2023-04-10T15:49:37.057Z,20.95
2023-04-10T15:52:06.251Z,21.16
2023-04-10T15:54:36.094Z,21.12
2023-04-10T15:57:03.790Z,20.91
2023-04-10T15:59:30.746Z,20.90
2023-04-10T16:01:57.607Z,20.90
2023-04-10T16:04:24.845Z,20.75
2023-04-10T16:06:51.777Z,20.85
2023-04-10T16:11:49.740Z,20.96
2023-04-10T16:14:18.882Z,20.84
2023-04-10T16:16:45.993Z,21.03
2023-04-10T16:19:12.845Z,21.04
2023-04-10T16:21:39.865Z,21.04
2023-04-10T16:24:06.920Z,20.94
2023-04-10T16:26:33.787Z,20.96
2023-04-10T16:29:00.456Z,20.87
2023-04-10T16:31:27.200Z,20.81
2023-04-10T16:33:54.043Z,20.53
2023-04-10T16:36:20.830Z,20.69
2023-04-10T16:38:49.844Z,20.80
2023-04-10T16:41:20.987Z,20.76
2023-04-10T16:43:48.266Z,20.85
2023-04-10T16:46:15.139Z,20.81
2023-04-10T16:48:42.010Z,20.75
2023-04-10T16:51:15.923Z,20.89
2023-04-10T16:53:42.979Z,20.98
2023-04-10T16:56:10.219Z,20.85
2023-04-10T16:58:37.760Z,20.74
2023-04-10T17:01:21.431Z,20.89
2023-04-10T17:03:48.759Z,20.73
2023-04-10T17:06:16.324Z,20.79
2023-04-10T17:08:44.181Z,20.84
2023-04-10T17:11:12.666Z,20.94
2023-04-10T17:13:42.465Z,20.89
2023-04-10T17:16:09.753Z,20.47
2023-04-10T17:18:36.958Z,20.38
2023-04-10T17:21:04.005Z,20.07
2023-04-10T17:23:30.893Z,19.99
2023-04-10T17:25:57.640Z,19.92
2023-04-10T17:28:24.441Z,19.92
2023-04-10T17:30:51.192Z,19.94
2023-04-10T17:33:17.891Z,20.00
2023-04-10T17:35:44.669Z,19.89
2023-04-10T17:38:11.405Z,19.85
2023-04-10T17:40:40.917Z,19.75
2023-04-10T17:43:08.149Z,19.60
2023-04-10T17:45:41.174Z,19.71
2023-04-10T17:48:08.826Z,19.68
2023-04-10T17:50:35.832Z,19.71
2023-04-10T17:53:02.695Z,19.65
2023-04-10T17:55:29.468Z,19.60
2023-04-10T17:57:58.943Z,19.46
2023-04-10T18:00:25.821Z,19.47
2023-04-10T18:02:57.964Z,19.31
2023-04-10T18:05:25.332Z,19.12
2023-04-10T18:07:52.127Z,19.06
2023-04-10T18:10:19.152Z,18.98
2023-04-10T18:12:45.996Z,18.94
2023-04-10T18:15:14.459Z,18.94
2023-04-10T18:17:41.444Z,18.92
2023-04-10T18:20:08.898Z,18.81
2023-04-10T18:22:35.702Z,18.66
2023-04-10T18:25:02.438Z,18.58
2023-04-10T18:27:34.382Z,18.54
2023-04-10T18:30:01.054Z,18.51
2023-04-10T18:32:27.860Z,18.46
2023-04-10T18:34:54.721Z,18.52
2023-04-10T18:37:21.494Z,18.49
2023-04-10T18:39:48.234Z,18.51
2023-04-10T18:42:14.947Z,18.50
2023-04-10T18:44:41.731Z,18.52
2023-04-10T18:47:08.615Z,18.54
2023-04-10T18:49:35.412Z,18.55
2023-04-10T18:52:02.254Z,18.59
2023-04-10T18:54:30.067Z,18.62
2023-04-10T18:56:56.842Z,18.58
2023-04-10T18:59:23.638Z,18.54
2023-04-10T19:01:52.803Z,18.47
2023-04-10T19:04:19.688Z,18.48
2023-04-10T19:06:46.894Z,18.45
2023-04-10T19:09:14.106Z,18.42
2023-04-10T19:11:41.223Z,18.43
2023-04-10T19:14:08.052Z,18.37
2023-04-10T19:16:35.279Z,18.36
2023-04-10T19:19:02.537Z,18.33
2023-04-10T19:21:29.379Z,18.34
2023-04-10T19:23:56.196Z,18.35
2023-04-10T19:26:23.170Z,18.35
2023-04-10T19:28:49.914Z,18.38
2023-04-10T19:31:16.727Z,18.35
2023-04-10T19:33:43.577Z,18.35
2023-04-10T19:36:10.461Z,18.38
2023-04-10T19:38:40.987Z,18.33
2023-04-10T19:41:18.054Z,18.28
2023-04-10T19:43:44.952Z,18.26
2023-04-10T19:46:21.233Z,18.25
2023-04-10T19:48:49.055Z,18.18
2023-04-10T19:51:16.167Z,18.14
2023-04-10T19:53:43.379Z,18.03
2023-04-10T19:56:10.200Z,17.98
2023-04-10T19:58:41.205Z,18.03
2023-04-10T20:01:09.071Z,18.04
2023-04-10T20:03:36.993Z,18.03
2023-04-10T20:06:07.390Z,18.02
2023-04-10T20:08:35.645Z,18.00
2023-04-10T20:11:06.022Z,18.05
2023-04-10T20:13:34.401Z,18.04
2023-04-10T20:16:01.280Z,18.03
2023-04-10T20:18:28.310Z,17.97
2023-04-10T20:20:55.145Z,17.99
2023-04-10T20:23:21.905Z,17.98
2023-04-10T20:25:48.632Z,17.96
2023-04-10T20:28:16.814Z,17.92
2023-04-10T20:30:44.093Z,17.90
2023-04-10T20:33:11.528Z,17.88
2023-04-10T20:35:38.541Z,17.89
2023-04-10T20:38:08.789Z,17.88
2023-04-10T20:40:36.159Z,17.87
2023-04-10T20:43:02.926Z,17.90
2023-04-10T20:45:29.627Z,17.89
2023-04-10T20:47:57.158Z,17.92
2023-04-10T20:50:24.002Z,17.90
2023-04-10T20:52:56.823Z,17.93
2023-04-10T20:55:23.559Z,17.89
2023-04-10T20:57:50.598Z,17.88
2023-04-10T21:00:17.650Z,17.90
2023-04-10T21:02:44.667Z,17.90
2023-04-10T21:05:11.976Z,17.90
2023-04-10T21:07:38.769Z,17.90
2023-04-10T21:10:05.977Z,17.90
2023-04-10T21:12:32.716Z,17.86
2023-04-10T21:14:59.439Z,17.86
2023-04-10T21:17:31.321Z,17.83
2023-04-10T21:19:59.338Z,17.82
2023-04-10T21:22:28.728Z,17.82
2023-04-10T21:24:56.269Z,17.78
2023-04-10T21:27:23.002Z,17.82
2023-04-10T21:29:49.718Z,17.83
2023-04-10T21:32:16.575Z,17.82
2023-04-10T21:34:43.337Z,17.82
2023-04-10T21:37:10.100Z,17.81
2023-04-10T21:39:40.323Z,17.78
2023-04-10T21:42:07.212Z,17.68
2023-04-10T21:44:33.998Z,17.64
2023-04-10T21:47:00.881Z,17.66
2023-04-10T21:49:27.624Z,17.68
2023-04-10T21:51:54.979Z,17.69
2023-04-10T21:54:21.742Z,17.73
2023-04-10T21:56:48.446Z,17.74
2023-04-10T21:59:15.388Z,17.77
2023-04-10T22:01:42.234Z,17.74
2023-04-10T22:04:09.217Z,17.75
2023-04-10T22:06:36.087Z,17.75
2023-04-10T22:09:02.814Z,17.72
2023-04-10T22:11:29.579Z,17.74
2023-04-10T22:14:00.095Z,17.70
2023-04-10T22:16:29.686Z,17.69
2023-04-10T22:18:56.722Z,17.68
2023-04-10T22:21:23.535Z,17.69
2023-04-10T22:23:50.419Z,17.67
2023-04-10T22:26:19.468Z,17.69
2023-04-10T22:28:46.535Z,17.69
2023-04-10T22:31:20.215Z,17.68
2023-04-10T22:33:48.734Z,17.67
2023-04-10T22:36:15.543Z,17.61
2023-04-10T22:38:42.277Z,17.58
2023-04-10T22:41:10.839Z,17.58
2023-04-10T22:43:37.689Z,17.52
2023-04-10T22:46:04.721Z,17.47
2023-04-10T22:48:32.676Z,17.48
2023-04-10T22:50:59.417Z,17.48
2023-04-10T22:53:27.439Z,17.48
2023-04-10T22:55:54.188Z,17.39
2023-04-10T22:58:20.980Z,17.35
2023-04-10T23:00:47.733Z,17.35
2023-04-10T23:03:14.492Z,17.14
2023-04-10T23:05:41.296Z,16.98
2023-04-10T23:08:08.020Z,17.01
2023-04-10T23:10:34.783Z,17.08
2023-04-10T23:13:01.772Z,16.94
2023-04-10T23:15:28.490Z,17.00
2023-04-10T23:17:55.871Z,17.05
2023-04-10T23:20:22.910Z,17.09
2023-04-10T23:22:49.680Z,17.06
2023-04-10T23:25:16.424Z,17.07
2023-04-10T23:27:43.179Z,17.09
2023-04-10T23:30:10.314Z,16.98
2023-04-10T23:32:37.077Z,17.02
2023-04-10T23:35:03.922Z,16.99
2023-04-10T23:37:33.829Z,16.99
2023-04-10T23:40:00.773Z,17.01
2023-04-10T23:42:27.521Z,16.98
2023-04-10T23:44:54.486Z,16.98
2023-04-10T23:47:21.328Z,16.94
2023-04-10T23:49:48.036Z,16.93
2023-04-10T23:52:14.748Z,16.76
2023-04-10T23:54:42.925Z,16.60
2023-04-10T23:57:09.925Z,16.58
2023-04-10T23:59:36.877Z,16.55
